createdAt,value
2017-09-16T00:02:12.419Z,100703.84
2017-09-16T00:04:41.813Z,100700.95
2017-09-16T00:07:11.158Z,100708.26
2017-09-16T00:09:40.517Z,100707.30
2017-09-16T00:12:09.979Z,100708.95
2017-09-16T00:14:39.304Z,100707.48
2017-09-16T00:17:08.694Z,100707.80
2017-09-16T00:19:38.099Z,100697.09
2017-09-16T00:22:07.547Z,100699.73
2017-09-16T00:24:37.259Z,100703.69
2017-09-16T00:27:06.887Z,100691.52
2017-09-16T00:29:36.268Z,100692.20
2017-09-16T00:32:05.655Z,100689.64
2017-09-16T00:34:35.024Z,100691.47
2017-09-16T00:37:04.447Z,100694.08
2017-09-16T00:39:33.748Z,100700.46
2017-09-16T00:42:03.200Z,100698.13
2017-09-16T00:44:32.608Z,100696.77
2017-09-16T00:47:01.914Z,100690.73
2017-09-16T00:49:31.278Z,100688.15
2017-09-16T00:52:00.815Z,100685.55
2017-09-16T00:54:30.120Z,100686.27
2017-09-16T00:56:59.565Z,100682.86
2017-09-16T00:59:29.062Z,100684.58
2017-09-16T01:01:58.487Z,100686.71
2017-09-16T01:04:28.033Z,100691.05
2017-09-16T01:06:57.497Z,100688.91
2017-09-16T01:09:27.061Z,100687.81
2017-09-16T01:11:56.572Z,100688.36
2017-09-16T01:14:26.004Z,100687.67
2017-09-16T01:16:55.536Z,100687.95
2017-09-16T01:19:24.980Z,100687.44
2017-09-16T01:21:54.630Z,100691.55
2017-09-16T01:24:23.988Z,100688.30
2017-09-16T01:26:53.692Z,100692.30
2017-09-16T01:29:23.112Z,100686.69
2017-09-16T01:31:52.453Z,100686.56
2017-09-16T01:34:21.791Z,100694.94
2017-09-16T01:36:51.161Z,100694.70
2017-09-16T01:39:20.517Z,100695.38
2017-09-16T01:41:49.863Z,100685.30
2017-09-16T01:44:19.192Z,100691.14
2017-09-16T01:46:48.539Z,100695.80
2017-09-16T01:49:17.880Z,100694.59
2017-09-16T01:51:47.311Z,100688.58
2017-09-16T01:54:16.604Z,100685.22
2017-09-16T01:56:45.936Z,100685.77
2017-09-16T01:59:15.258Z,100680.44
2017-09-16T02:01:44.777Z,100681.53
2017-09-16T02:04:14.268Z,100679.92
2017-09-16T02:06:43.615Z,100681.15
2017-09-16T02:09:12.952Z,100677.59
2017-09-16T02:11:42.372Z,100679.54
2017-09-16T02:14:11.672Z,100676.39
2017-09-16T02:16:41.013Z,100677.08
2017-09-16T02:19:10.580Z,100673.39
2017-09-16T02:21:39.934Z,100675.98
2017-09-16T02:24:09.283Z,100677.35
2017-09-16T02:26:38.676Z,100683.23
2017-09-16T02:29:08.056Z,100684.33
2017-09-16T02:31:37.399Z,100686.13
2017-09-16T02:34:06.704Z,100680.66
2017-09-16T02:36:36.042Z,100677.69
2017-09-16T02:39:05.892Z,100684.00
2017-09-16T02:41:35.249Z,100692.06
2017-09-16T02:44:04.636Z,100690.70
2017-09-16T02:46:34.001Z,100689.22
2017-09-16T02:49:03.404Z,100697.30
2017-09-16T02:51:32.791Z,100696.21
2017-09-16T02:54:02.196Z,100692.94
2017-09-16T02:56:31.529Z,100684.73
2017-09-16T02:59:01.131Z,100684.75
2017-09-16T03:01:30.549Z,100684.33
2017-09-16T03:03:59.895Z,100673.28
2017-09-16T03:06:30.056Z,100679.95
2017-09-16T03:08:59.432Z,100675.50
2017-09-16T03:11:28.772Z,100672.06
2017-09-16T03:13:58.045Z,100674.66
2017-09-16T03:16:27.421Z,100681.63
2017-09-16T03:18:56.792Z,100684.36
2017-09-16T03:21:26.141Z,100676.59
2017-09-16T03:23:55.444Z,100674.69
2017-09-16T03:26:24.760Z,100671.98
2017-09-16T03:28:54.259Z,100680.73
2017-09-16T03:31:23.647Z,100684.84
2017-09-16T03:33:52.924Z,100682.75
2017-09-16T03:36:22.284Z,100685.52
2017-09-16T03:38:51.588Z,100686.48
2017-09-16T03:41:20.936Z,100688.81
2017-09-16T03:43:50.197Z,100685.41
2017-09-16T03:46:19.662Z,100679.27
2017-09-16T03:48:48.966Z,100680.77
2017-09-16T03:51:18.327Z,100681.05
2017-09-16T03:53:47.627Z,100671.63
2017-09-16T03:56:16.939Z,100668.61
2017-09-16T03:58:46.212Z,100674.36
2017-09-16T04:04:13.173Z,100677.76
2017-09-16T04:06:42.731Z,100682.30
2017-09-16T04:09:12.331Z,100682.03
2017-09-16T04:11:41.687Z,100683.53
2017-09-16T04:14:11.003Z,100686.94
2017-09-16T04:16:40.367Z,100691.86
2017-09-16T04:19:09.769Z,100687.91
2017-09-16T04:21:39.168Z,100694.87
2017-09-16T04:24:08.535Z,100697.05
2017-09-16T04:26:37.867Z,100695.42
2017-09-16T04:29:07.143Z,100699.53
2017-09-16T04:31:36.527Z,100701.98
2017-09-16T04:34:05.794Z,100709.23
2017-09-16T04:36:35.117Z,100705.67
2017-09-16T04:39:05.449Z,100708.42
2017-09-16T04:41:34.828Z,100699.40
2017-09-16T04:44:04.103Z,100699.95
2017-09-16T04:46:33.608Z,100697.09
2017-09-16T04:49:02.896Z,100695.30
2017-09-16T04:51:32.244Z,100698.05
2017-09-16T04:54:01.685Z,100705.39
2017-09-16T04:56:37.415Z,100706.37
2017-09-16T04:59:06.742Z,100700.89
2017-09-16T05:01:36.056Z,100695.73
2017-09-16T05:04:05.397Z,100689.98
2017-09-16T05:06:34.831Z,100691.36
2017-09-16T05:09:04.461Z,100690.81
2017-09-16T05:11:33.917Z,100693.55
2017-09-16T05:14:03.229Z,100695.16
2017-09-16T05:16:32.769Z,100701.59
2017-09-16T05:19:02.066Z,100699.26
2017-09-16T05:21:31.561Z,100702.94
2017-09-16T05:24:00.868Z,100708.69
2017-09-16T05:26:30.321Z,100706.34
2017-09-16T05:28:59.709Z,100709.34
2017-09-16T05:31:29.203Z,100708.13
2017-09-16T05:33:58.531Z,100710.44
2017-09-16T05:36:27.881Z,100707.84
2017-09-16T05:38:57.226Z,100716.83
2017-09-16T05:41:26.688Z,100714.23
2017-09-16T05:43:56.088Z,100708.89
2017-09-16T05:46:25.483Z,100700.15
2017-09-16T05:48:54.895Z,100713.91
2017-09-16T05:51:24.300Z,100706.52
2017-09-16T05:53:53.762Z,100716.33
2017-09-16T05:56:23.064Z,100700.88
2017-09-16T05:58:52.400Z,100722.66
2017-09-16T06:01:22.214Z,100710.72
2017-09-16T06:03:51.547Z,100715.45
2017-09-16T06:06:21.900Z,100718.77
2017-09-16T06:08:53.751Z,100713.71
2017-09-16T06:11:23.204Z,100715.06
2017-09-16T06:13:52.463Z,100723.69
2017-09-16T06:16:21.816Z,100715.70
2017-09-16T06:18:52.224Z,100725.48
2017-09-16T06:21:22.439Z,100726.19
2017-09-16T06:23:51.731Z,100717.28
2017-09-16T06:26:21.091Z,100717.25
2017-09-16T06:28:50.438Z,100724.36
2017-09-16T06:31:19.758Z,100724.64
2017-09-16T06:33:49.048Z,100717.30
2017-09-16T06:36:18.430Z,100720.77
2017-09-16T06:38:47.695Z,100724.16
2017-09-16T06:41:16.988Z,100718.23
2017-09-16T06:46:21.799Z,100730.78
2017-09-16T06:48:51.035Z,100737.37
2017-09-16T06:51:20.349Z,100742.57
2017-09-16T06:53:49.696Z,100738.52
2017-09-16T06:56:19.072Z,100742.80
2017-09-16T06:58:48.375Z,100747.11
2017-09-16T07:01:17.719Z,100747.15
2017-09-16T07:03:47.031Z,100756.12
2017-09-16T07:06:16.447Z,100755.87
2017-09-16T07:08:45.723Z,100766.75
2017-09-16T07:11:15.241Z,100767.95
2017-09-16T07:13:44.537Z,100771.69
2017-09-16T07:16:13.898Z,100764.84
2017-09-16T07:18:43.370Z,100769.47
2017-09-16T07:21:12.988Z,100765.83
2017-09-16T07:23:42.338Z,100767.53
2017-09-16T07:26:11.691Z,100772.06
2017-09-16T07:28:43.731Z,100769.92
2017-09-16T07:31:15.423Z,100765.90
2017-09-16T07:33:45.499Z,100774.86
2017-09-16T07:36:14.832Z,100773.31
2017-09-16T07:38:44.192Z,100776.42
2017-09-16T07:41:13.561Z,100782.79
2017-09-16T07:43:44.119Z,100783.70
2017-09-16T07:46:14.689Z,100784.72
2017-09-16T07:48:44.028Z,100775.61
2017-09-16T07:51:13.407Z,100781.39
2017-09-16T07:53:42.858Z,100782.00
2017-09-16T07:56:12.553Z,100791.83
2017-09-16T07:58:43.489Z,100793.09
2017-09-16T08:01:12.826Z,100798.84
2017-09-16T08:03:42.189Z,100797.13
2017-09-16T08:06:12.701Z,100803.45
2017-09-16T08:08:43.217Z,100809.26
2017-09-16T08:11:16.230Z,100810.52
2017-09-16T08:13:46.117Z,100817.70
2017-09-16T08:16:15.790Z,100819.04
2017-09-16T08:18:45.960Z,100813.52
2017-09-16T08:21:16.749Z,100818.57
2017-09-16T08:23:46.168Z,100819.13
2017-09-16T08:26:15.817Z,100819.83
2017-09-16T08:28:45.167Z,100805.23
2017-09-16T08:31:14.511Z,100799.22
2017-09-16T08:33:43.832Z,100802.56
2017-09-16T08:36:13.195Z,100803.97
2017-09-16T08:38:42.523Z,100809.53
2017-09-16T08:41:11.865Z,100809.20
2017-09-16T08:43:42.045Z,100805.73
2017-09-16T08:46:13.885Z,100812.06
2017-09-16T08:48:43.436Z,100799.12
2017-09-16T08:51:12.804Z,100801.28
2017-09-16T08:53:42.344Z,100791.84
2017-09-16T08:56:11.776Z,100795.55
2017-09-16T08:58:41.134Z,100801.42
2017-09-16T09:01:10.967Z,100793.79
2017-09-16T09:03:41.573Z,100793.94
2017-09-16T09:06:14.132Z,100796.55
2017-09-16T09:08:43.894Z,100795.22
2017-09-16T09:11:17.986Z,100801.18
2017-09-16T09:13:48.362Z,100810.08
2017-09-16T09:16:19.467Z,100810.05
2017-09-16T09:18:48.847Z,100806.37
2017-09-16T09:21:18.393Z,100809.10
2017-09-16T09:23:47.782Z,100814.23
2017-09-16T09:26:17.140Z,100803.89
2017-09-16T09:28:46.603Z,100803.97
2017-09-16T09:31:15.992Z,100807.15
2017-09-16T09:33:47.621Z,100804.11
2017-09-16T09:36:17.016Z,100806.44
2017-09-16T09:38:50.775Z,100810.79
2017-09-16T09:41:20.921Z,100818.89
2017-09-16T09:43:51.662Z,100816.18
2017-09-16T09:46:23.628Z,100814.50
2017-09-16T09:48:53.204Z,100816.20
2017-09-16T09:51:22.716Z,100817.33
2017-09-16T09:53:52.237Z,100807.86
2017-09-16T09:56:21.619Z,100809.49
2017-09-16T09:58:51.165Z,100806.23
2017-09-16T10:01:33.078Z,100813.74
2017-09-16T10:04:05.653Z,100815.39
2017-09-16T10:06:36.405Z,100815.66
2017-09-16T10:09:06.061Z,100805.40
2017-09-16T10:11:36.776Z,100809.33
2017-09-16T10:14:06.276Z,100811.66
2017-09-16T10:16:35.712Z,100809.58
2017-09-16T10:19:05.097Z,100802.98
2017-09-16T10:21:34.441Z,100806.30
2017-09-16T10:24:03.761Z,100803.25
2017-09-16T10:26:33.149Z,100794.70
2017-09-16T10:29:02.533Z,100787.98
2017-09-16T10:31:31.882Z,100792.10
2017-09-16T10:34:01.146Z,100790.65
2017-09-16T10:36:30.518Z,100784.11
2017-09-16T10:38:59.853Z,100787.31
2017-09-16T10:41:29.324Z,100792.10
2017-09-16T10:43:58.792Z,100793.13
2017-09-16T10:46:28.168Z,100792.05
2017-09-16T10:48:57.487Z,100801.77
2017-09-16T10:51:27.876Z,100806.37
2017-09-16T10:53:57.266Z,100800.41
2017-09-16T10:56:27.257Z,100802.76
2017-09-16T10:58:56.631Z,100808.52
2017-09-16T11:01:25.948Z,100797.55
2017-09-16T11:03:55.589Z,100801.86
2017-09-16T11:06:25.081Z,100792.28
2017-09-16T11:08:54.475Z,100786.10
2017-09-16T11:11:23.856Z,100792.13
2017-09-16T11:13:55.243Z,100790.21
2017-09-16T11:16:24.617Z,100786.19
2017-09-16T11:18:54.101Z,100783.70
2017-09-16T11:21:23.580Z,100787.83
2017-09-16T11:23:52.925Z,100787.33
2017-09-16T11:26:22.349Z,100781.42
2017-09-16T11:28:51.740Z,100779.17
2017-09-16T11:31:21.071Z,100773.55
2017-09-16T11:33:50.385Z,100770.94
2017-09-16T11:36:19.737Z,100771.23
2017-09-16T11:38:49.156Z,100768.86
2017-09-16T11:41:18.617Z,100778.06
2017-09-16T11:43:47.947Z,100772.05
2017-09-16T11:46:17.263Z,100771.96
2017-09-16T11:48:46.785Z,100776.94
2017-09-16T11:51:16.116Z,100777.78
2017-09-16T11:53:45.422Z,100778.31
2017-09-16T11:56:14.758Z,100778.34
2017-09-16T11:58:44.186Z,100764.17
2017-09-16T12:01:13.535Z,100766.66
2017-09-16T12:03:42.885Z,100766.20
2017-09-16T12:06:12.496Z,100765.48
2017-09-16T12:08:41.860Z,100767.62
2017-09-16T12:11:11.236Z,100767.44
2017-09-16T12:13:40.564Z,100764.75
2017-09-16T12:16:10.135Z,100772.13
2017-09-16T12:18:39.739Z,100760.48
2017-09-16T12:21:09.075Z,100762.57
2017-09-16T12:23:38.392Z,100761.08
2017-09-16T12:26:07.711Z,100765.96
2017-09-16T12:28:37.201Z,100759.08
2017-09-16T12:31:06.543Z,100757.89
2017-09-16T12:33:36.013Z,100755.40
2017-09-16T12:36:05.367Z,100758.59
2017-09-16T12:38:34.727Z,100753.84
2017-09-16T12:41:04.073Z,100758.70
2017-09-16T12:43:33.426Z,100763.11
2017-09-16T12:46:02.912Z,100767.17
2017-09-16T12:48:32.241Z,100758.56
2017-09-16T12:51:01.616Z,100758.44
2017-09-16T12:53:30.923Z,100765.22
2017-09-16T12:56:00.231Z,100765.33
2017-09-16T12:58:29.857Z,100763.34
2017-09-16T13:00:59.161Z,100757.09
2017-09-16T13:03:28.467Z,100758.39
2017-09-16T13:05:57.939Z,100759.04
2017-09-16T13:08:27.224Z,100753.77
2017-09-16T13:10:56.576Z,100754.67
2017-09-16T13:13:26.040Z,100764.38
2017-09-16T13:15:55.446Z,100759.27
2017-09-16T13:18:25.288Z,100762.25
2017-09-16T13:20:54.652Z,100761.19
2017-09-16T13:23:23.959Z,100766.19
2017-09-16T13:25:53.318Z,100770.92
2017-09-16T13:28:22.712Z,100765.59
2017-09-16T13:30:52.217Z,100761.02
2017-09-16T13:33:21.685Z,100759.81
2017-09-16T13:35:51.119Z,100763.40
2017-09-16T13:38:20.441Z,100764.98
2017-09-16T13:40:49.773Z,100763.77
2017-09-16T13:43:19.079Z,100764.30
2017-09-16T13:45:48.447Z,100771.55
2017-09-16T13:48:17.867Z,100778.14
2017-09-16T13:50:47.219Z,100773.56
2017-09-16T13:53:16.480Z,100772.23
2017-09-16T13:55:45.784Z,100762.19
2017-09-16T13:58:15.042Z,100765.37
2017-09-16T14:00:44.432Z,100759.45
2017-09-16T14:03:14.916Z,100755.16
2017-09-16T14:05:44.385Z,100759.94
2017-09-16T14:08:14.073Z,100754.83
2017-09-16T14:10:44.359Z,100753.83
2017-09-16T14:13:13.960Z,100761.71
2017-09-16T14:15:43.577Z,100758.34
2017-09-16T14:18:12.891Z,100758.02
2017-09-16T14:20:44.240Z,100751.80
2017-09-16T14:23:15.355Z,100761.30
2017-09-16T14:25:44.916Z,100757.08
2017-09-16T14:28:14.228Z,100759.72
2017-09-16T14:31:06.680Z,100758.53
2017-09-16T14:33:36.120Z,100762.98
2017-09-16T14:36:05.483Z,100759.23
2017-09-16T14:38:34.804Z,100752.11
2017-09-16T14:41:04.184Z,100752.28
2017-09-16T14:43:33.503Z,100760.77
2017-09-16T14:46:03.230Z,100761.89
2017-09-16T14:48:33.515Z,100754.36
2017-09-16T14:51:02.925Z,100756.52
2017-09-16T14:53:32.267Z,100756.95
2017-09-16T14:56:01.638Z,100756.73
2017-09-16T14:58:30.955Z,100750.73
2017-09-16T15:01:00.336Z,100749.83
2017-09-16T15:03:30.508Z,100750.30
2017-09-16T15:06:00.164Z,100757.84
2017-09-16T15:08:29.500Z,100757.63
2017-09-16T15:11:03.938Z,100768.10
2017-09-16T15:13:52.118Z,100758.52
2017-09-16T15:16:59.258Z,100764.23
2017-09-16T15:19:31.493Z,100763.95
2017-09-16T15:22:11.402Z,100761.92
2017-09-16T15:24:44.523Z,100756.49
2017-09-16T15:27:19.671Z,100751.55
2017-09-16T15:29:56.062Z,100748.24
2017-09-16T15:32:33.727Z,100756.93
2017-09-16T15:35:07.284Z,100749.48
2017-09-16T15:37:41.520Z,100751.93
2017-09-16T15:40:16.567Z,100750.33
2017-09-16T15:42:50.997Z,100757.06
2017-09-16T15:45:24.005Z,100758.86
2017-09-16T15:47:57.344Z,100753.94
2017-09-16T15:50:28.443Z,100749.11
2017-09-16T15:53:04.401Z,100759.80
2017-09-16T15:55:48.430Z,100755.92
2017-09-16T15:58:22.831Z,100750.22
2017-09-16T16:00:56.097Z,100757.84
2017-09-16T16:03:27.167Z,100760.11
2017-09-16T16:05:57.285Z,100765.38
2017-09-16T16:08:27.448Z,100769.83
2017-09-16T16:11:00.451Z,100770.42
2017-09-16T16:13:33.502Z,100769.77
2017-09-16T16:16:07.068Z,100774.94
2017-09-16T16:18:39.176Z,100777.00
2017-09-16T16:21:19.410Z,100784.86
2017-09-16T16:23:53.220Z,100784.47
2017-09-16T16:26:34.115Z,100785.36
2017-09-16T16:29:09.948Z,100791.91
2017-09-16T16:31:44.451Z,100795.28
2017-09-16T16:34:21.965Z,100797.02
2017-09-16T16:37:03.022Z,100792.75
2017-09-16T16:41:00.497Z,100782.50
2017-09-16T16:43:35.445Z,100801.45
2017-09-16T16:46:16.242Z,100800.25
2017-09-16T16:48:53.765Z,100798.09
2017-09-16T16:51:38.760Z,100802.27
2017-09-16T16:54:11.263Z,100792.67
2017-09-16T16:59:30.998Z,100800.67
2017-09-16T17:02:07.389Z,100809.40
2017-09-16T17:04:42.208Z,100810.14
2017-09-16T17:08:05.186Z,100809.33
2017-09-16T17:10:49.935Z,100809.27
2017-09-16T20:57:31.467Z,100928.39
2017-09-16T21:00:08.054Z,100929.98
2017-09-16T21:03:08.859Z,100925.92
2017-09-16T21:05:41.553Z,100932.55
2017-09-16T21:08:11.180Z,100931.01
2017-09-16T21:10:40.735Z,100930.70
2017-09-16T21:13:10.152Z,100928.86
2017-09-16T21:15:39.659Z,100922.86
2017-09-16T21:18:09.018Z,100930.16
2017-09-16T21:20:39.379Z,100928.40
2017-09-16T21:23:08.679Z,100925.23
2017-09-16T21:25:39.733Z,100930.98
2017-09-16T21:28:09.133Z,100937.39
2017-09-16T21:30:38.596Z,100938.99
2017-09-16T21:33:08.034Z,100939.16
2017-09-16T21:35:38.669Z,100936.77
2017-09-16T21:38:10.074Z,100932.70
2017-09-16T21:40:40.578Z,100928.80
2017-09-16T21:43:11.825Z,100937.63
2017-09-16T21:45:41.844Z,100929.86
2017-09-16T21:48:11.516Z,100941.08
2017-09-16T21:50:41.216Z,100932.85
2017-09-16T21:53:11.174Z,100930.88
2017-09-16T21:55:40.762Z,100933.41
2017-09-16T21:58:10.239Z,100933.42
2017-09-16T22:00:39.997Z,100935.16
2017-09-16T22:03:09.643Z,100942.63
2017-09-16T22:05:39.195Z,100936.06
2017-09-16T22:08:08.697Z,100938.98
2017-09-16T22:10:38.281Z,100941.23
2017-09-16T22:13:08.485Z,100945.37
2017-09-16T22:15:38.018Z,100945.99
2017-09-16T22:18:07.571Z,100944.69
2017-09-16T22:20:37.417Z,100952.77
2017-09-16T22:23:07.181Z,100951.54
2017-09-16T22:25:39.107Z,100954.74
2017-09-16T22:28:09.880Z,100942.55
2017-09-16T22:30:39.441Z,100947.95
2017-09-16T22:33:09.979Z,100955.58
2017-09-16T22:35:39.801Z,100953.02
2017-09-16T22:38:09.161Z,100948.95
2017-09-16T22:40:39.720Z,100953.13
2017-09-16T22:43:09.236Z,100954.00
2017-09-16T22:45:38.757Z,100956.34
2017-09-16T22:48:08.639Z,100963.06
2017-09-16T22:50:38.088Z,100969.66
2017-09-16T22:53:08.600Z,100970.13
2017-09-16T22:55:38.260Z,100969.62
2017-09-16T22:58:07.762Z,100971.69
2017-09-16T23:00:37.125Z,100971.55
2017-09-16T23:03:06.485Z,100970.88
2017-09-16T23:05:35.872Z,100973.25
2017-09-16T23:08:05.372Z,100976.54
2017-09-16T23:10:34.889Z,100973.84
2017-09-16T23:13:04.415Z,100978.05
2017-09-16T23:15:34.709Z,100976.95
2017-09-16T23:18:04.873Z,100980.02
2017-09-16T23:20:34.532Z,100985.05
2017-09-16T23:23:03.816Z,100980.80
2017-09-16T23:25:34.243Z,100977.70
2017-09-16T23:28:03.685Z,100973.89
2017-09-16T23:30:33.035Z,100973.08
2017-09-16T23:33:02.397Z,100975.17
2017-09-16T23:35:31.935Z,100977.64
2017-09-16T23:38:01.439Z,100965.90
2017-09-16T23:40:30.870Z,100975.08
2017-09-16T23:43:00.212Z,100968.49
2017-09-16T23:45:31.723Z,100968.95
2017-09-16T23:48:01.049Z,100966.07
2017-09-16T23:50:30.658Z,100962.09
2017-09-16T23:53:00.030Z,100957.06
2017-09-16T23:55:29.457Z,100953.95
2017-09-16T23:57:58.791Z,100956.55
